Time;durP1;ratioP1;P1;durP2;ratioP2;P2;SDS_P1;SDS_P2;PMS_P1;PMS_P2;Temp;Humidity;BMP_temperature;BMP_pressure;BME280_temperature;BME280_humidity;BME280_pressure;Samples;Min_cycle;Max_cycle;Signal;HPM_P1;HPM_P2
2023/08/11 00:00:48;;;;;;;4.60;4.20;;;;;;;;;;5100131;28;20455;-81
2023/08/11 00:03:16;;;;;;;5.23;4.67;;;;;;;;;;5099656;28;20853;-81
2023/08/11 00:05:44;;;;;;;5.43;4.93;;;;;;;;;;5099525;28;20419;-81
2023/08/11 00:08:13;;;;;;;6.03;5.13;;;;;;;;;;5100057;28;20449;-80
2023/08/11 00:10:40;;;;;;;8.50;4.33;;;;;;;;;;5099605;28;20946;-81
2023/08/11 00:13:12;;;;;;;7.03;3.97;;;;;;;;;;5098425;28;20898;-82
2023/08/11 00:15:40;;;;;;;4.63;4.20;;;;;;;;;;5099143;28;20451;-81
2023/08/11 00:18:09;;;;;;;7.63;4.40;;;;;;;;;;5100704;28;20519;-81
2023/08/11 00:20:36;;;;;;;4.90;4.13;;;;;;;;;;5100511;28;20542;-81
2023/08/11 00:23:05;;;;;;;4.50;4.10;;;;;;;;;;5101653;28;20471;-81
2023/08/11 00:25:32;;;;;;;9.70;4.47;;;;;;;;;;5101223;28;20457;-81
2023/08/11 00:28:00;;;;;;;4.47;4.07;;;;;;;;;;5101912;28;20819;-81
2023/08/11 00:30:27;;;;;;;4.93;4.53;;;;;;;;;;5101937;28;20530;-81
2023/08/11 00:32:55;;;;;;;6.80;4.27;;;;;;;;;;5100954;28;21009;-82
2023/08/11 00:35:23;;;;;;;5.57;5.00;;;;;;;;;;5100835;28;20450;-82
2023/08/11 00:37:50;;;;;;;4.80;4.30;;;;;;;;;;5100960;28;20443;-81
2023/08/11 00:40:19;;;;;;;3.90;3.47;;;;;;;;;;5101446;28;20447;-82
2023/08/11 00:42:49;;;;;;;4.90;4.50;;;;;;;;;;5101234;28;20470;-82
2023/08/11 00:45:16;;;;;;;5.00;4.50;;;;;;;;;;5100437;28;20458;-81
2023/08/11 00:47:43;;;;;;;4.47;4.07;;;;;;;;;;5101435;28;20453;-82
2023/08/11 00:50:11;;;;;;;6.63;4.47;;;;;;;;;;5100598;28;20892;-81
2023/08/11 00:52:38;;;;;;;7.20;4.57;;;;;;;;;;5101764;28;20471;-82
2023/08/11 00:55:06;;;;;;;5.00;4.00;;;;;;;;;;5100367;28;20514;-81
2023/08/11 00:57:36;;;;;;;4.70;4.13;;;;;;;;;;5098181;28;20545;-81
2023/08/11 01:00:12;;;;;;;5.47;5.00;;;;;;;;;;5099900;28;20470;-81
2023/08/11 01:02:41;;;;;;;5.47;4.83;;;;;;;;;;5098591;28;20498;-81
2023/08/11 01:05:09;;;;;;;5.40;4.90;;;;;;;;;;5099148;28;20516;-81
2023/08/11 01:07:40;;;;;;;4.90;4.50;;;;;;;;;;5099175;28;20454;-80
2023/08/11 01:10:12;;;;;;;5.17;4.67;;;;;;;;;;5099633;28;20506;-81
2023/08/11 01:12:43;;;;;;;4.67;4.23;;;;;;;;;;5099084;28;20466;-81
2023/08/11 01:15:15;;;;;;;6.57;4.67;;;;;;;;;;5102446;28;20530;-80
2023/08/11 01:17:43;;;;;;;6.97;4.23;;;;;;;;;;5103945;28;20494;-80
2023/08/11 01:20:11;;;;;;;5.10;3.93;;;;;;;;;;5104326;28;20472;-81
2023/08/11 01:22:42;;;;;;;4.53;4.13;;;;;;;;;;5105812;28;21002;-81
2023/08/11 01:25:11;;;;;;;4.60;4.20;;;;;;;;;;5109044;28;20530;-81
2023/08/11 01:27:44;;;;;;;5.13;3.97;;;;;;;;;;5107133;28;20438;-81
2023/08/11 01:30:12;;;;;;;5.20;4.57;;;;;;;;;;5101369;28;20504;-81
2023/08/11 01:32:39;;;;;;;6.80;4.10;;;;;;;;;;5101878;28;20493;-81
2023/08/11 01:35:06;;;;;;;3.97;3.63;;;;;;;;;;5101394;28;20451;-81
2023/08/11 01:37:34;;;;;;;4.53;4.00;;;;;;;;;;5101434;28;20452;-82
2023/08/11 01:40:01;;;;;;;4.47;3.97;;;;;;;;;;5101743;28;20453;-81
2023/08/11 01:42:29;;;;;;;4.83;4.20;;;;;;;;;;5101506;28;20474;-81
2023/08/11 01:44:56;;;;;;;5.73;4.27;;;;;;;;;;5102570;28;20457;-81
2023/08/11 01:47:25;;;;;;;5.33;4.10;;;;;;;;;;5105117;28;20823;-81
2023/08/11 01:49:52;;;;;;;9.20;4.60;;;;;;;;;;5104437;28;20477;-81
2023/08/11 01:52:20;;;;;;;5.67;4.90;;;;;;;;;;5105474;28;20459;-81
2023/08/11 01:54:47;;;;;;;6.30;5.17;;;;;;;;;;5106246;28;20508;-81
2023/08/11 01:57:14;;;;;;;4.33;3.93;;;;;;;;;;5108438;28;20462;-81
2023/08/11 01:59:45;;;;;;;5.93;4.30;;;;;;;;;;5105824;28;20451;-82
2023/08/11 02:02:12;;;;;;;5.83;5.23;;;;;;;;;;5106456;28;20455;-81
2023/08/11 02:04:39;;;;;;;5.90;5.30;;;;;;;;;;5106308;28;20471;-81
2023/08/11 02:07:06;;;;;;;9.33;5.00;;;;;;;;;;5105712;28;20485;-81
2023/08/11 02:09:34;;;;;;;5.50;4.97;;;;;;;;;;5105925;28;20435;-81
2023/08/11 02:12:01;;;;;;;7.07;4.77;;;;;;;;;;5106764;28;20471;-81
2023/08/11 02:14:28;;;;;;;5.73;4.70;;;;;;;;;;5106507;28;20442;-81
2023/08/11 02:16:57;;;;;;;7.90;4.83;;;;;;;;;;5105361;28;20462;-81
2023/08/11 02:19:24;;;;;;;7.00;5.17;;;;;;;;;;5108568;28;20454;-81
2023/08/11 02:21:53;;;;;;;5.63;4.57;;;;;;;;;;5113447;28;20474;-81
2023/08/11 02:24:20;;;;;;;5.43;4.93;;;;;;;;;;5113341;28;20942;-81
2023/08/11 02:26:48;;;;;;;6.70;5.87;;;;;;;;;;5113025;28;20454;-81
2023/08/11 02:29:16;;;;;;;6.63;4.50;;;;;;;;;;5114383;28;20474;-80
2023/08/11 02:31:43;;;;;;;6.30;5.70;;;;;;;;;;5112145;28;20493;-81
2023/08/11 02:34:12;;;;;;;6.17;5.57;;;;;;;;;;5112839;28;20439;-81
2023/08/11 02:36:40;;;;;;;10.60;5.47;;;;;;;;;;5112550;28;21012;-81
2023/08/11 02:39:08;;;;;;;7.73;4.97;;;;;;;;;;5111703;28;20529;-81
2023/08/11 02:41:35;;;;;;;16.87;5.63;;;;;;;;;;5112213;28;20470;-81
2023/08/11 02:44:03;;;;;;;5.20;4.73;;;;;;;;;;5112027;28;20482;-81
2023/08/11 02:46:31;;;;;;;6.30;5.13;;;;;;;;;;5112036;28;20434;-81
2023/08/11 02:48:58;;;;;;;8.10;5.17;;;;;;;;;;5112126;28;20450;-81
2023/08/11 02:51:27;;;;;;;7.63;5.10;;;;;;;;;;5111823;28;20998;-81
2023/08/11 02:53:54;;;;;;;6.70;5.10;;;;;;;;;;5112901;28;20534;-81
2023/08/11 02:56:22;;;;;;;6.80;4.83;;;;;;;;;;5112007;28;20474;-81
2023/08/11 02:58:49;;;;;;;9.20;5.43;;;;;;;;;;5112326;28;20497;-81
2023/08/11 03:01:17;;;;;;;6.90;4.90;;;;;;;;;;5111534;28;20450;-80
2023/08/11 03:03:45;;;;;;;6.40;5.40;;;;;;;;;;5111275;28;20451;-80
2023/08/11 03:06:13;;;;;;;5.50;4.87;;;;;;;;;;5111678;28;20506;-81
2023/08/11 03:08:42;;;;;;;8.43;4.83;;;;;;;;;;5112464;28;20461;-81
2023/08/11 03:11:10;;;;;;;8.97;7.13;;;;;;;;;;5112010;28;20493;-81
2023/08/11 03:13:38;;;;;;;5.33;4.83;;;;;;;;;;5112114;28;20888;-80
2023/08/11 03:16:05;;;;;;;5.63;5.10;;;;;;;;;;5112661;28;20469;-81
2023/08/11 03:18:33;;;;;;;6.33;5.47;;;;;;;;;;5112216;28;20443;-81
2023/08/11 03:21:00;;;;;;;6.03;5.37;;;;;;;;;;5111708;28;20454;-81
2023/08/11 03:23:28;;;;;;;5.60;5.10;;;;;;;;;;5112762;28;20446;-81
2023/08/11 03:25:57;;;;;;;9.73;5.10;;;;;;;;;;5112099;28;20474;-81
2023/08/11 03:28:24;;;;;;;7.13;6.43;;;;;;;;;;5112073;28;20482;-81
2023/08/11 03:30:52;;;;;;;6.30;5.40;;;;;;;;;;5111802;28;20485;-81
2023/08/11 03:33:19;;;;;;;9.67;5.43;;;;;;;;;;5111431;28;20475;-82
2023/08/11 03:35:48;;;;;;;6.43;5.57;;;;;;;;;;5111762;28;20455;-81
2023/08/11 03:38:15;;;;;;;5.30;4.80;;;;;;;;;;5111196;28;20539;-82
2023/08/11 03:40:43;;;;;;;6.97;4.97;;;;;;;;;;5111234;28;20451;-81
2023/08/11 03:43:12;;;;;;;6.70;5.50;;;;;;;;;;5109904;28;20493;-81
2023/08/11 03:45:40;;;;;;;6.20;5.30;;;;;;;;;;5111037;28;20475;-81
2023/08/11 03:48:07;;;;;;;6.47;4.73;;;;;;;;;;5111482;28;20463;-82
2023/08/11 03:50:45;;;;;;;6.13;5.53;;;;;;;;;;5110824;28;20471;-81
2023/08/11 03:53:13;;;;;;;7.67;5.13;;;;;;;;;;5110786;28;20472;-81
2023/08/11 03:55:40;;;;;;;6.77;5.20;;;;;;;;;;5110922;28;20454;-81
2023/08/11 03:58:08;;;;;;;7.37;5.50;;;;;;;;;;5110688;28;20463;-81
2023/08/11 04:00:36;;;;;;;7.03;5.37;;;;;;;;;;5109380;28;20862;-81
2023/08/11 04:03:04;;;;;;;6.57;5.40;;;;;;;;;;5108242;28;20493;-81
2023/08/11 04:05:31;;;;;;;6.93;5.17;;;;;;;;;;5106523;28;20453;-81
2023/08/11 04:07:58;;;;;;;7.93;5.60;;;;;;;;;;5103024;28;20443;-81
2023/08/11 04:10:26;;;;;;;5.57;4.80;;;;;;;;;;5106082;28;20625;-81
2023/08/11 04:12:53;;;;;;;10.13;6.00;;;;;;;;;;5102750;28;20479;-82
2023/08/11 04:15:20;;;;;;;8.27;6.13;;;;;;;;;;5102592;28;20968;-81
2023/08/11 04:17:49;;;;;;;7.13;5.07;;;;;;;;;;5102700;28;20478;-82
2023/08/11 04:20:16;;;;;;;7.10;4.90;;;;;;;;;;5104777;28;20455;-81
2023/08/11 04:22:43;;;;;;;11.30;4.70;;;;;;;;;;5105358;28;20478;-82
2023/08/11 04:25:12;;;;;;;6.37;5.73;;;;;;;;;;5100865;28;20447;-82
2023/08/11 04:27:40;;;;;;;6.20;4.83;;;;;;;;;;5101193;28;20526;-82
2023/08/11 04:30:08;;;;;;;13.10;6.13;;;;;;;;;;5105626;28;20469;-82
2023/08/11 04:32:35;;;;;;;7.83;6.47;;;;;;;;;;5101769;28;20455;-82
2023/08/11 04:35:05;;;;;;;9.60;5.80;;;;;;;;;;5101934;28;20454;-82
2023/08/11 04:37:33;;;;;;;19.13;6.13;;;;;;;;;;5107678;28;20483;-81
2023/08/11 04:40:15;;;;;;;8.50;5.57;;;;;;;;;;5106625;28;20454;-81
2023/08/11 04:42:42;;;;;;;7.20;5.07;;;;;;;;;;5106814;28;20498;-82
2023/08/11 04:45:10;;;;;;;5.30;4.80;;;;;;;;;;5103113;28;20459;-82
2023/08/11 04:47:37;;;;;;;4.97;4.50;;;;;;;;;;5103145;28;20661;-82
2023/08/11 04:50:07;;;;;;;6.90;3.90;;;;;;;;;;5101329;28;20534;-82
2023/08/11 04:52:35;;;;;;;4.57;4.00;;;;;;;;;;5100976;28;20520;-82
2023/08/11 04:55:03;;;;;;;5.10;4.00;;;;;;;;;;5102570;28;20447;-82
2023/08/11 04:57:30;;;;;;;4.77;3.57;;;;;;;;;;5100932;28;20439;-82
2023/08/11 04:59:57;;;;;;;5.87;3.50;;;;;;;;;;5100957;28;20462;-82
2023/08/11 05:02:24;;;;;;;5.60;4.10;;;;;;;;;;5101472;28;20485;-82
2023/08/11 05:04:51;;;;;;;5.53;3.77;;;;;;;;;;5102184;28;20442;-82
2023/08/11 05:07:21;;;;;;;5.03;4.03;;;;;;;;;;5100909;28;20534;-82
2023/08/11 05:09:49;;;;;;;3.93;3.40;;;;;;;;;;5101160;28;20547;-82
2023/08/11 05:12:16;;;;;;;4.30;3.90;;;;;;;;;;5100936;28;20525;-82
2023/08/11 05:14:44;;;;;;;4.67;3.30;;;;;;;;;;5100573;28;20981;-81
2023/08/11 05:17:11;;;;;;;3.93;3.10;;;;;;;;;;5100353;28;20562;-83
2023/08/11 05:19:38;;;;;;;4.63;4.10;;;;;;;;;;5099491;28;20461;-82
2023/08/11 05:22:06;;;;;;;4.70;4.20;;;;;;;;;;5101213;28;20509;-83
2023/08/11 05:24:34;;;;;;;3.97;3.37;;;;;;;;;;5101132;28;20534;-82
2023/08/11 05:27:01;;;;;;;6.03;4.30;;;;;;;;;;5100076;28;20477;-82
2023/08/11 05:29:28;;;;;;;6.43;3.67;;;;;;;;;;5101050;28;20495;-80
2023/08/11 05:31:56;;;;;;;4.13;3.73;;;;;;;;;;5100818;28;20673;-82
2023/08/11 05:34:23;;;;;;;6.67;3.77;;;;;;;;;;5099841;28;20455;-80
2023/08/11 05:36:50;;;;;;;5.00;3.50;;;;;;;;;;5101007;28;20450;-81
2023/08/11 05:39:18;;;;;;;4.30;3.47;;;;;;;;;;5100087;28;20473;-82
2023/08/11 05:41:46;;;;;;;3.97;3.57;;;;;;;;;;5099628;28;20477;-81
2023/08/11 05:44:13;;;;;;;5.33;3.73;;;;;;;;;;5100598;28;20461;-81
2023/08/11 05:46:40;;;;;;;6.50;2.90;;;;;;;;;;5100994;28;20461;-81
2023/08/11 05:49:08;;;;;;;3.30;2.90;;;;;;;;;;5100578;28;20471;-81
2023/08/11 05:51:35;;;;;;;4.90;3.00;;;;;;;;;;5100670;28;20585;-82
2023/08/11 05:54:02;;;;;;;5.50;2.93;;;;;;;;;;5099895;28;20457;-80
2023/08/11 05:56:29;;;;;;;4.23;2.57;;;;;;;;;;5099809;28;20470;-81
2023/08/11 05:58:57;;;;;;;3.17;2.87;;;;;;;;;;5100670;28;20446;-81
2023/08/11 06:01:25;;;;;;;4.90;2.87;;;;;;;;;;5100565;28;20506;-81
2023/08/11 06:03:52;;;;;;;4.40;2.60;;;;;;;;;;5099947;28;20473;-80
2023/08/11 06:06:20;;;;;;;2.63;2.43;;;;;;;;;;5099259;28;20450;-82
2023/08/11 06:08:47;;;;;;;2.97;2.70;;;;;;;;;;5100282;28;20429;-81
2023/08/11 06:11:15;;;;;;;3.57;3.13;;;;;;;;;;5100109;28;20505;-81
2023/08/11 06:13:42;;;;;;;2.33;2.13;;;;;;;;;;5101023;28;20511;-81
2023/08/11 06:16:11;;;;;;;3.37;3.07;;;;;;;;;;5100507;28;20902;-81
2023/08/11 06:18:38;;;;;;;3.73;2.60;;;;;;;;;;5100355;28;20439;-83
2023/08/11 06:21:06;;;;;;;4.03;3.10;;;;;;;;;;5100538;28;20816;-81
2023/08/11 06:23:33;;;;;;;3.10;2.80;;;;;;;;;;5100051;28;20449;-82
2023/08/11 06:26:01;;;;;;;3.00;2.50;;;;;;;;;;5100670;28;20452;-82
2023/08/11 06:28:28;;;;;;;4.37;2.40;;;;;;;;;;5100904;28;20439;-83
2023/08/11 06:31:05;;;;;;;3.27;2.97;;;;;;;;;;5102402;28;20449;-82
2023/08/11 06:33:33;;;;;;;2.70;2.50;;;;;;;;;;5104944;28;20434;-80
2023/08/11 06:36:00;;;;;;;3.20;2.83;;;;;;;;;;5104570;28;20457;-82
2023/08/11 06:38:28;;;;;;;2.60;2.40;;;;;;;;;;5103831;28;20553;-82
2023/08/11 06:40:55;;;;;;;3.47;3.17;;;;;;;;;;5105665;28;20493;-82
2023/08/11 06:43:22;;;;;;;3.30;2.87;;;;;;;;;;5105038;28;20450;-82
2023/08/11 06:45:50;;;;;;;3.80;3.40;;;;;;;;;;5104436;28;20453;-83
2023/08/11 06:48:17;;;;;;;3.77;2.90;;;;;;;;;;5104458;28;20452;-81
2023/08/11 06:50:45;;;;;;;4.80;2.73;;;;;;;;;;5103936;28;20208;-82
2023/08/11 06:53:12;;;;;;;3.13;2.57;;;;;;;;;;5105344;28;20312;-83
2023/08/11 06:55:40;;;;;;;5.43;4.93;;;;;;;;;;5105030;28;20295;-82
2023/08/11 06:58:07;;;;;;;3.83;2.73;;;;;;;;;;5105021;28;20208;-81
2023/08/11 07:00:36;;;;;;;2.73;2.53;;;;;;;;;;5104929;28;20268;-80
2023/08/11 07:03:04;;;;;;;2.83;2.53;;;;;;;;;;5105136;28;20632;-82
2023/08/11 07:05:33;;;;;;;3.80;3.00;;;;;;;;;;5104919;28;20208;-80
2023/08/11 07:08:01;;;;;;;2.50;2.30;;;;;;;;;;5104845;28;20212;-83
2023/08/11 07:10:29;;;;;;;3.47;3.17;;;;;;;;;;5104086;28;20243;-83
2023/08/11 07:12:56;;;;;;;4.57;2.77;;;;;;;;;;5103730;28;20230;-81
2023/08/11 07:15:23;;;;;;;4.53;2.77;;;;;;;;;;5104169;28;20563;-82
2023/08/11 07:17:51;;;;;;;4.93;2.70;;;;;;;;;;5103928;28;20239;-82
2023/08/11 07:20:18;;;;;;;2.57;2.23;;;;;;;;;;5104906;28;20235;-83
2023/08/11 07:22:46;;;;;;;5.53;2.17;;;;;;;;;;5104162;28;20235;-83
2023/08/11 07:25:14;;;;;;;3.93;2.70;;;;;;;;;;5103840;28;20200;-82
2023/08/11 07:27:41;;;;;;;3.40;2.93;;;;;;;;;;5103239;28;20236;-82
2023/08/11 07:30:10;;;;;;;3.40;3.10;;;;;;;;;;5103383;28;20264;-82
2023/08/11 07:32:37;;;;;;;2.78;2.30;;;;;;;;;;5102568;28;20253;-82
2023/08/11 07:35:05;;;;;;;2.65;2.45;;;;;;;;;;5103572;28;20687;-83
2023/08/11 07:37:32;;;;;;;2.90;2.60;;;;;;;;;;5102914;28;20207;-83
2023/08/11 07:39:59;;;;;;;2.97;2.72;;;;;;;;;;5103315;28;20207;-83
2023/08/11 07:42:28;;;;;;;2.92;2.63;;;;;;;;;;5102389;28;20319;-82
2023/08/11 07:44:55;;;;;;;2.70;2.50;;;;;;;;;;5103174;28;20239;-82
2023/08/11 07:47:23;;;;;;;2.60;2.40;;;;;;;;;;5103993;28;20215;-83
2023/08/11 07:49:50;;;;;;;3.23;2.40;;;;;;;;;;5103584;28;20215;-82
2023/08/11 07:52:18;;;;;;;4.37;2.67;;;;;;;;;;5102872;28;20224;-83
2023/08/11 07:54:45;;;;;;;3.57;2.97;;;;;;;;;;5102243;28;20215;-82
2023/08/11 07:57:12;;;;;;;3.00;2.37;;;;;;;;;;5102357;28;20446;-82
2023/08/11 07:59:41;;;;;;;6.83;3.20;;;;;;;;;;5102689;28;20450;-82
2023/08/11 08:02:08;;;;;;;2.60;2.40;;;;;;;;;;5102419;28;20473;-82
2023/08/11 08:04:35;;;;;;;6.20;3.23;;;;;;;;;;5102519;28;20514;-83
2023/08/11 08:07:03;;;;;;;2.93;2.60;;;;;;;;;;5102469;28;20527;-82
2023/08/11 08:09:33;;;;;;;4.80;2.40;;;;;;;;;;5101857;28;20441;-79
2023/08/11 08:12:01;;;;;;;6.07;2.90;;;;;;;;;;5101772;28;20486;-82
2023/08/11 08:14:28;;;;;;;2.80;2.60;;;;;;;;;;5100798;28;20466;-80
2023/08/11 08:16:58;;;;;;;2.80;2.30;;;;;;;;;;5101927;28;20486;-83
2023/08/11 08:19:25;;;;;;;3.33;2.47;;;;;;;;;;5101945;28;20454;-81
2023/08/11 08:21:52;;;;;;;4.47;3.07;;;;;;;;;;5102258;28;20558;-82
2023/08/11 08:24:19;;;;;;;4.20;2.50;;;;;;;;;;5102165;28;20534;-83
2023/08/11 08:26:49;;;;;;;4.10;2.80;;;;;;;;;;5103413;28;20549;-82
2023/08/11 08:29:18;;;;;;;6.13;2.40;;;;;;;;;;5102971;28;20455;-83
2023/08/11 08:31:45;;;;;;;4.40;3.03;;;;;;;;;;5101817;28;20491;-83
2023/08/11 08:34:14;;;;;;;4.90;3.03;;;;;;;;;;5102155;28;20435;-83
2023/08/11 08:36:41;;;;;;;3.77;2.70;;;;;;;;;;5101504;28;20435;-82
2023/08/11 08:39:08;;;;;;;4.37;3.50;;;;;;;;;;5102349;28;20461;-83
2023/08/11 08:41:39;;;;;;;3.17;2.87;;;;;;;;;;5102224;28;20463;-81
2023/08/11 08:44:06;;;;;;;5.20;2.90;;;;;;;;;;5101846;28;20451;-81
2023/08/11 08:46:34;;;;;;;2.90;2.60;;;;;;;;;;5101668;28;20475;-81
2023/08/11 08:49:08;;;;;;;3.27;2.97;;;;;;;;;;5101554;28;20439;-80
2023/08/11 08:51:38;;;;;;;4.70;3.30;;;;;;;;;;5102036;28;20453;-81
2023/08/11 08:54:08;;;;;;;4.23;3.30;;;;;;;;;;5102772;28;20465;-82
2023/08/11 08:56:37;;;;;;;4.53;2.93;;;;;;;;;;5103241;28;20495;-80
2023/08/11 08:59:04;;;;;;;6.07;2.77;;;;;;;;;;5100642;28;20854;-81
2023/08/11 09:01:31;;;;;;;4.93;3.30;;;;;;;;;;5102217;28;20538;-82
2023/08/11 09:03:59;;;;;;;2.87;2.57;;;;;;;;;;5101602;28;20456;-82
2023/08/11 09:06:34;;;;;;;2.87;2.40;;;;;;;;;;5101939;28;20463;-80
2023/08/11 09:09:03;;;;;;;4.13;2.73;;;;;;;;;;5102393;28;20878;-83
2023/08/11 09:11:31;;;;;;;3.73;2.90;;;;;;;;;;5101755;28;20482;-81
2023/08/11 09:14:02;;;;;;;2.80;2.53;;;;;;;;;;5101592;28;20487;-81
2023/08/11 09:16:30;;;;;;;5.13;3.00;;;;;;;;;;5102500;28;20495;-83
2023/08/11 09:18:57;;;;;;;2.90;2.60;;;;;;;;;;5102110;28;20459;-81
2023/08/11 09:21:25;;;;;;;3.03;2.33;;;;;;;;;;5102640;28;20482;-81
2023/08/11 09:23:54;;;;;;;5.50;3.03;;;;;;;;;;5102834;28;20958;-81
2023/08/11 09:26:22;;;;;;;2.67;2.47;;;;;;;;;;5103440;28;20884;-81
2023/08/11 09:28:50;;;;;;;3.60;2.70;;;;;;;;;;5102412;28;21046;-81
2023/08/11 09:31:17;;;;;;;6.83;3.43;;;;;;;;;;5102555;28;20555;-83
2023/08/11 09:33:44;;;;;;;2.87;2.60;;;;;;;;;;5103088;28;20557;-83
2023/08/11 09:36:12;;;;;;;4.67;2.93;;;;;;;;;;5103028;28;20439;-81
2023/08/11 09:38:42;;;;;;;4.00;2.67;;;;;;;;;;5103145;28;20462;-81
2023/08/11 09:41:09;;;;;;;3.30;2.70;;;;;;;;;;5103350;28;20447;-81
2023/08/11 09:43:38;;;;;;;5.10;2.83;;;;;;;;;;5102975;28;20477;-81
2023/08/11 09:46:05;;;;;;;2.70;2.50;;;;;;;;;;5103146;28;20799;-84
2023/08/11 09:48:32;;;;;;;3.03;2.40;;;;;;;;;;5103318;28;20557;-82
2023/08/11 09:51:00;;;;;;;3.63;3.17;;;;;;;;;;5102423;28;20554;-83
2023/08/11 09:53:27;;;;;;;3.93;2.90;;;;;;;;;;5101790;28;20952;-83
2023/08/11 09:55:56;;;;;;;5.30;2.63;;;;;;;;;;5102134;28;20451;-81
2023/08/11 09:58:25;;;;;;;3.67;3.00;;;;;;;;;;5102792;28;20470;-81
2023/08/11 10:00:54;;;;;;;4.57;3.13;;;;;;;;;;5100698;28;20496;-83
2023/08/11 10:03:26;;;;;;;3.87;2.80;;;;;;;;;;5102826;28;21017;-83
2023/08/11 10:05:55;;;;;;;3.33;2.40;;;;;;;;;;5103457;28;20507;-83
2023/08/11 10:08:25;;;;;;;3.70;3.00;;;;;;;;;;5106208;28;20489;-83
2023/08/11 10:10:52;;;;;;;5.03;2.90;;;;;;;;;;5105243;28;20442;-83
2023/08/11 10:13:21;;;;;;;3.10;2.80;;;;;;;;;;5105860;28;20493;-83
2023/08/11 10:15:49;;;;;;;2.90;2.60;;;;;;;;;;5105692;28;20454;-83
2023/08/11 10:18:17;;;;;;;2.97;2.63;;;;;;;;;;5105780;28;20786;-83
2023/08/11 10:20:46;;;;;;;2.90;2.57;;;;;;;;;;5106156;28;20826;-83
2023/08/11 10:23:14;;;;;;;7.93;3.73;;;;;;;;;;5104891;28;20466;-83
2023/08/11 10:25:41;;;;;;;3.13;2.30;;;;;;;;;;5104078;28;20454;-82
2023/08/11 10:28:11;;;;;;;2.73;2.47;;;;;;;;;;5105444;28;20459;-82
2023/08/11 10:30:38;;;;;;;3.20;2.60;;;;;;;;;;5105614;28;20965;-82
2023/08/11 10:33:06;;;;;;;3.20;2.50;;;;;;;;;;5106488;28;20479;-82
2023/08/11 10:35:49;;;;;;;4.30;2.60;;;;;;;;;;5104891;28;20442;-82
2023/08/11 10:38:23;;;;;;;3.10;2.80;;;;;;;;;;5104037;28;20495;-83
2023/08/11 10:40:50;;;;;;;6.10;3.17;;;;;;;;;;5104755;28;20461;-82
2023/08/11 10:43:18;;;;;;;3.80;2.97;;;;;;;;;;5105302;28;20472;-84
2023/08/11 10:45:46;;;;;;;3.60;2.63;;;;;;;;;;5104898;28;20519;-83
2023/08/11 10:48:13;;;;;;;5.10;3.03;;;;;;;;;;5105020;28;20454;-83
2023/08/11 10:50:42;;;;;;;3.57;2.87;;;;;;;;;;5104280;28;20459;-83
2023/08/11 10:53:09;;;;;;;3.93;2.63;;;;;;;;;;5105587;28;20986;-82
2023/08/11 10:55:37;;;;;;;2.20;2.00;;;;;;;;;;5105919;28;20954;-83
2023/08/11 10:58:10;;;;;;;2.57;2.37;;;;;;;;;;5105115;28;20439;-82
2023/08/11 11:00:38;;;;;;;2.40;2.20;;;;;;;;;;5107462;28;20451;-82
2023/08/11 11:03:06;;;;;;;3.50;2.40;;;;;;;;;;5106365;28;20463;-83
2023/08/11 11:05:43;;;;;;;2.93;2.63;;;;;;;;;;5105298;28;20462;-82
2023/08/11 11:08:11;;;;;;;2.83;2.57;;;;;;;;;;5107209;28;20482;-82
2023/08/11 11:10:38;;;;;;;5.13;2.70;;;;;;;;;;5107883;28;20450;-82
2023/08/11 11:13:05;;;;;;;6.40;2.60;;;;;;;;;;5105766;28;20490;-82
2023/08/11 11:15:33;;;;;;;3.20;2.40;;;;;;;;;;5107519;28;20522;-83
2023/08/11 11:18:01;;;;;;;3.00;2.70;;;;;;;;;;5105460;28;20519;-80
2023/08/11 11:20:28;;;;;;;2.80;2.50;;;;;;;;;;5107051;28;20522;-81
2023/08/11 11:22:57;;;;;;;3.67;2.77;;;;;;;;;;5105512;28;20471;-82
2023/08/11 11:25:24;;;;;;;7.00;2.90;;;;;;;;;;5107460;28;20462;-83
2023/08/11 11:27:51;;;;;;;3.23;2.40;;;;;;;;;;5107478;28;20455;-83
2023/08/11 11:30:19;;;;;;;3.10;2.80;;;;;;;;;;5107432;28;20547;-83
2023/08/11 11:32:47;;;;;;;4.60;2.83;;;;;;;;;;5106535;28;20502;-83
2023/08/11 11:35:15;;;;;;;3.40;2.27;;;;;;;;;;5106996;28;20519;-82
2023/08/11 11:37:44;;;;;;;3.90;3.60;;;;;;;;;;5106838;28;20469;-83
2023/08/11 11:40:13;;;;;;;3.80;2.07;;;;;;;;;;5107568;28;20545;-83
2023/08/11 11:42:41;;;;;;;3.87;2.43;;;;;;;;;;5106859;28;20462;-83
2023/08/11 11:45:09;;;;;;;2.77;2.03;;;;;;;;;;5105917;28;20500;-83
2023/08/11 11:47:36;;;;;;;2.53;2.33;;;;;;;;;;5105454;28;20477;-83
2023/08/11 11:50:08;;;;;;;6.83;6.17;;;;;;;;;;5105235;28;20487;-83
2023/08/11 11:52:36;;;;;;;2.30;2.10;;;;;;;;;;5104850;28;20470;-83
2023/08/11 11:55:05;;;;;;;2.33;2.13;;;;;;;;;;5104721;28;20459;-83
2023/08/11 11:57:34;;;;;;;3.67;2.57;;;;;;;;;;5105314;28;20458;-83
2023/08/11 12:00:03;;;;;;;12.53;8.87;;;;;;;;;;5105810;28;20499;-83
2023/08/11 12:02:32;;;;;;;2.20;2.00;;;;;;;;;;5109029;28;20562;-83
2023/08/11 12:05:00;;;;;;;5.23;3.40;;;;;;;;;;5106398;28;20541;-82
2023/08/11 12:07:33;;;;;;;2.63;2.40;;;;;;;;;;5105263;28;20518;-83
2023/08/11 12:10:01;;;;;;;2.20;2.00;;;;;;;;;;5105371;28;20575;-83
2023/08/11 12:12:29;;;;;;;4.90;3.73;;;;;;;;;;5105440;28;20856;-82
2023/08/11 12:15:03;;;;;;;3.00;2.80;;;;;;;;;;5106069;28;20527;-82
2023/08/11 12:17:32;;;;;;;5.40;2.60;;;;;;;;;;5105032;28;20473;-82
2023/08/11 12:19:59;;;;;;;3.00;2.57;;;;;;;;;;5105171;28;20475;-84
2023/08/11 12:22:27;;;;;;;2.47;2.27;;;;;;;;;;5103294;28;20871;-83
2023/08/11 12:24:54;;;;;;;2.80;2.60;;;;;;;;;;5104352;28;20837;-82
2023/08/11 12:27:21;;;;;;;4.10;2.50;;;;;;;;;;5105275;28;20946;-82
2023/08/11 12:29:53;;;;;;;3.73;2.50;;;;;;;;;;5103749;28;20458;-83
2023/08/11 12:32:21;;;;;;;3.20;2.90;;;;;;;;;;5103737;28;20474;-84
2023/08/11 12:34:49;;;;;;;2.87;2.57;;;;;;;;;;5102853;28;20534;-84
2023/08/11 12:37:16;;;;;;;5.60;2.23;;;;;;;;;;5104877;28;20442;-83
2023/08/11 12:39:43;;;;;;;2.70;2.50;;;;;;;;;;5104313;28;20472;-83
2023/08/11 12:42:11;;;;;;;3.23;2.60;;;;;;;;;;5104310;28;21002;-83
2023/08/11 12:44:39;;;;;;;2.83;2.53;;;;;;;;;;5105159;28;20449;-82
2023/08/11 12:47:06;;;;;;;2.90;2.30;;;;;;;;;;5103605;28;20457;-83
2023/08/11 12:49:35;;;;;;;4.83;2.10;;;;;;;;;;5103206;28;20504;-83
2023/08/11 12:52:02;;;;;;;2.23;2.00;;;;;;;;;;5103792;28;20505;-83
2023/08/11 12:54:29;;;;;;;4.53;3.23;;;;;;;;;;5101927;28;20540;-83
2023/08/11 12:56:57;;;;;;;2.93;2.73;;;;;;;;;;5103458;28;20427;-82
2023/08/11 12:59:24;;;;;;;2.73;2.20;;;;;;;;;;5100603;28;20549;-82
2023/08/11 13:01:51;;;;;;;2.47;2.27;;;;;;;;;;5099492;28;20879;-81
2023/08/11 13:04:19;;;;;;;2.73;2.20;;;;;;;;;;5100210;28;20446;-82
2023/08/11 13:06:47;;;;;;;2.83;2.50;;;;;;;;;;5099465;28;20439;-82
2023/08/11 13:09:15;;;;;;;2.40;2.10;;;;;;;;;;5100159;28;20497;-82
2023/08/11 13:11:42;;;;;;;3.30;2.67;;;;;;;;;;5099479;28;20483;-81
2023/08/11 13:14:10;;;;;;;3.60;2.33;;;;;;;;;;5100212;28;20478;-82
2023/08/11 13:16:37;;;;;;;2.80;2.50;;;;;;;;;;5100804;28;20508;-83
2023/08/11 13:19:05;;;;;;;3.37;2.40;;;;;;;;;;5101881;28;20525;-83
2023/08/11 13:21:32;;;;;;;3.20;2.90;;;;;;;;;;5102591;28;20504;-83
2023/08/11 13:24:00;;;;;;;2.60;2.40;;;;;;;;;;5102753;28;20461;-83
2023/08/11 13:26:28;;;;;;;2.60;2.40;;;;;;;;;;5102741;28;20455;-83
2023/08/11 13:28:57;;;;;;;2.90;2.47;;;;;;;;;;5101634;28;20467;-83
2023/08/11 13:31:24;;;;;;;3.33;2.60;;;;;;;;;;5102745;28;20466;-83
2023/08/11 13:33:51;;;;;;;3.70;2.23;;;;;;;;;;5102985;28;20540;-83
2023/08/11 13:36:18;;;;;;;6.43;2.47;;;;;;;;;;5102988;28;20830;-83
2023/08/11 13:38:46;;;;;;;3.07;2.40;;;;;;;;;;5102688;28;20451;-82
2023/08/11 13:41:15;;;;;;;2.70;2.47;;;;;;;;;;5101983;28;20480;-83
2023/08/11 13:43:42;;;;;;;3.70;2.50;;;;;;;;;;5102467;28;20879;-82
2023/08/11 13:46:09;;;;;;;2.40;2.20;;;;;;;;;;5101838;28;20492;-83
2023/08/11 13:48:37;;;;;;;2.70;2.50;;;;;;;;;;5102143;28;20538;-84
2023/08/11 13:51:04;;;;;;;2.50;2.30;;;;;;;;;;5102377;28;20447;-83
2023/08/11 13:53:31;;;;;;;2.33;2.13;;;;;;;;;;5101929;28;20482;-83
2023/08/11 13:55:58;;;;;;;3.00;2.70;;;;;;;;;;5100943;28;20455;-83
2023/08/11 13:58:27;;;;;;;2.10;1.90;;;;;;;;;;5101598;28;20476;-83
2023/08/11 14:00:54;;;;;;;2.70;2.50;;;;;;;;;;5101338;28;20504;-83
2023/08/11 14:03:21;;;;;;;5.50;2.50;;;;;;;;;;5101708;28;20492;-83
2023/08/11 14:05:48;;;;;;;3.27;2.97;;;;;;;;;;5101633;28;20498;-83
2023/08/11 14:08:16;;;;;;;2.90;2.70;;;;;;;;;;5102202;28;20494;-83
2023/08/11 14:10:43;;;;;;;2.67;2.40;;;;;;;;;;5101586;28;20460;-83
2023/08/11 14:13:10;;;;;;;3.07;2.40;;;;;;;;;;5106369;28;20967;-84
2023/08/11 14:15:39;;;;;;;3.50;2.47;;;;;;;;;;5108741;28;20441;-82
2023/08/11 14:18:07;;;;;;;3.00;2.70;;;;;;;;;;5108112;28;20463;-83
2023/08/11 14:20:35;;;;;;;4.83;2.47;;;;;;;;;;5109173;28;20451;-82
2023/08/11 14:23:02;;;;;;;14.00;9.40;;;;;;;;;;5108749;28;20477;-83
2023/08/11 14:25:30;;;;;;;6.17;4.10;;;;;;;;;;5107703;28;20443;-82
2023/08/11 14:27:57;;;;;;;5.80;5.20;;;;;;;;;;5105125;28;20446;-82
2023/08/11 14:30:24;;;;;;;3.87;3.47;;;;;;;;;;5102266;28;20534;-82
2023/08/11 14:32:53;;;;;;;2.53;2.33;;;;;;;;;;5101662;28;20523;-83
2023/08/11 14:35:20;;;;;;;8.47;5.27;;;;;;;;;;5103098;28;20489;-84
2023/08/11 14:37:47;;;;;;;3.47;2.40;;;;;;;;;;5100698;28;20512;-84
2023/08/11 14:40:14;;;;;;;6.43;2.60;;;;;;;;;;5101123;28;20560;-83
2023/08/11 14:42:41;;;;;;;5.97;4.87;;;;;;;;;;5103716;28;20487;-84
2023/08/11 14:45:09;;;;;;;9.43;7.73;;;;;;;;;;5104717;28;20461;-84
2023/08/11 14:47:36;;;;;;;5.50;2.63;;;;;;;;;;5104953;28;20463;-83